createdAt,value
2022-07-30T00:01:18.126Z,1.98
2022-07-30T00:03:45.175Z,2.30
2022-07-30T00:06:12.147Z,3.83
2022-07-30T00:08:39.116Z,3.92
2022-07-30T00:11:06.166Z,2.67
2022-07-30T00:13:33.122Z,2.97
2022-07-30T00:16:00.110Z,3.80
2022-07-30T00:18:27.059Z,5.43
2022-07-30T00:20:53.996Z,2.75
2022-07-30T00:23:23.409Z,4.82
2022-07-30T00:25:50.380Z,3.25
2022-07-30T00:28:17.320Z,2.90
2022-07-30T00:30:44.338Z,3.22
2022-07-30T00:33:11.310Z,5.13
2022-07-30T00:35:39.680Z,4.10
2022-07-30T00:38:06.664Z,2.47
2022-07-30T00:40:33.701Z,2.47
2022-07-30T00:43:00.682Z,3.65
2022-07-30T00:45:28.022Z,2.92
2022-07-30T00:47:55.027Z,2.35
2022-07-30T00:50:21.992Z,2.05
2022-07-30T00:52:49.320Z,3.17
2022-07-30T00:55:16.322Z,3.67
2022-07-30T00:57:44.564Z,3.13
2022-07-30T01:00:16.559Z,4.53
2022-07-30T01:02:43.880Z,3.78
2022-07-30T01:05:11.506Z,3.45
2022-07-30T01:07:38.560Z,5.60
2022-07-30T01:10:07.986Z,2.60
2022-07-30T01:12:35.275Z,4.25
2022-07-30T01:15:06.193Z,5.05
2022-07-30T01:17:34.365Z,2.25
2022-07-30T01:20:11.177Z,2.35
2022-07-30T01:22:53.024Z,2.17
2022-07-30T01:25:32.107Z,2.22
2022-07-30T01:28:08.920Z,2.72
2022-07-30T01:30:40.908Z,3.22
2022-07-30T01:33:12.505Z,2.50
2022-07-30T01:35:41.904Z,2.67
2022-07-30T01:38:11.342Z,3.10
2022-07-30T01:40:39.667Z,2.25
2022-07-30T01:43:08.084Z,3.53
2022-07-30T01:45:42.136Z,2.72
2022-07-30T01:48:14.693Z,2.28
2022-07-30T01:50:54.752Z,2.22
2022-07-30T01:53:27.007Z,2.63
2022-07-30T01:55:56.014Z,3.60
2022-07-30T01:58:29.567Z,2.47
2022-07-30T02:01:04.489Z,4.90
2022-07-30T02:03:32.717Z,3.58
2022-07-30T02:06:17.725Z,2.50
2022-07-30T02:08:58.579Z,3.55
2022-07-30T02:11:45.866Z,3.75
2022-07-30T02:14:27.833Z,5.72
2022-07-30T02:16:58.966Z,3.22
2022-07-30T02:19:36.629Z,2.80
2022-07-30T02:22:12.871Z,2.75
2022-07-30T02:24:43.777Z,3.38
2022-07-30T02:27:18.016Z,2.97
2022-07-30T02:29:47.384Z,3.97
2022-07-30T02:32:20.179Z,6.10
2022-07-30T02:34:53.405Z,3.33
2022-07-30T02:37:42.948Z,4.05
2022-07-30T02:40:15.632Z,3.75
2022-07-30T02:42:46.802Z,3.33
2022-07-30T02:45:17.819Z,3.40
2022-07-30T02:47:53.569Z,3.20
2022-07-30T02:50:23.064Z,3.30
2022-07-30T02:52:51.743Z,4.03
2022-07-30T02:55:19.908Z,3.80
2022-07-30T02:57:49.097Z,3.22
2022-07-30T03:00:16.875Z,4.18
2022-07-30T03:02:46.134Z,3.88
2022-07-30T03:05:15.639Z,4.57
2022-07-30T03:07:44.305Z,5.03
2022-07-30T03:10:13.103Z,5.97
2022-07-30T03:12:44.310Z,5.57
2022-07-30T03:15:14.001Z,4.78
2022-07-30T03:17:46.280Z,3.38
2022-07-30T03:20:25.815Z,4.05
2022-07-30T03:22:55.924Z,4.32
2022-07-30T03:25:31.940Z,4.45
2022-07-30T03:28:03.910Z,5.88
2022-07-30T03:30:33.419Z,8.18
2022-07-30T03:33:01.095Z,8.52
2022-07-30T03:35:30.450Z,5.18
2022-07-30T03:38:00.312Z,6.38
2022-07-30T03:40:28.628Z,9.20
2022-07-30T03:42:56.301Z,5.13
2022-07-30T03:45:25.352Z,5.13
2022-07-30T03:47:57.362Z,7.20
2022-07-30T03:50:24.848Z,6.85
2022-07-30T03:52:53.126Z,4.88
2022-07-30T03:55:21.828Z,5.32
2022-07-30T03:57:48.935Z,4.63
2022-07-30T04:00:18.154Z,5.57
2022-07-30T04:02:49.869Z,4.88
2022-07-30T04:05:37.759Z,4.82
2022-07-30T04:08:08.744Z,4.90
2022-07-30T04:10:35.942Z,4.80
2022-07-30T04:13:31.705Z,3.97
2022-07-30T04:16:39.113Z,7.03
2022-07-30T04:19:03.657Z,5.25
2022-07-30T04:21:33.445Z,8.93
2022-07-30T04:24:05.587Z,4.90
2022-07-30T04:26:37.024Z,4.63
2022-07-30T04:29:08.168Z,5.50
2022-07-30T04:31:40.968Z,8.38
2022-07-30T04:34:26.835Z,5.30
2022-07-30T04:36:54.065Z,4.93
2022-07-30T04:39:21.147Z,4.35
2022-07-30T04:41:50.035Z,6.78
2022-07-30T04:44:43.682Z,4.25
2022-07-30T04:47:20.527Z,3.33
2022-07-30T04:50:00.900Z,3.33
2022-07-30T04:52:28.319Z,3.45
2022-07-30T04:55:02.723Z,3.90
2022-07-30T04:57:31.629Z,4.45
2022-07-30T04:59:59.019Z,3.65
2022-07-30T05:02:29.789Z,5.13
2022-07-30T05:07:28.676Z,3.85
2022-07-30T05:09:55.783Z,6.13
2022-07-30T05:12:38.541Z,3.47
2022-07-30T05:15:09.739Z,4.20
2022-07-30T05:17:37.947Z,4.90
2022-07-30T05:20:08.569Z,2.55
2022-07-30T05:23:04.368Z,6.70
2022-07-30T05:25:31.490Z,5.53
2022-07-30T05:28:11.307Z,5.05
2022-07-30T05:30:38.416Z,3.65
2022-07-30T05:33:13.351Z,5.28
2022-07-30T05:35:43.134Z,5.22
2022-07-30T05:38:10.166Z,8.30
2022-07-30T05:40:50.686Z,5.03
2022-07-30T05:43:43.774Z,6.55
2022-07-30T05:46:10.909Z,4.13
2022-07-30T05:48:38.671Z,4.75
2022-07-30T05:51:06.107Z,4.72
2022-07-30T05:53:33.218Z,3.58
2022-07-30T05:56:26.660Z,4.03
2022-07-30T05:59:04.142Z,5.45
2022-07-30T06:01:51.136Z,4.20
2022-07-30T06:04:24.275Z,4.97
2022-07-30T06:06:58.621Z,3.58
2022-07-30T06:09:32.930Z,4.35
2022-07-30T06:12:05.272Z,3.35
2022-07-30T06:14:32.512Z,7.03
2022-07-30T06:17:00.109Z,5.18
2022-07-30T06:19:33.118Z,7.57
2022-07-30T06:22:06.177Z,10.55
2022-07-30T06:24:39.108Z,4.15
2022-07-30T06:27:11.443Z,5.88
2022-07-30T06:29:39.225Z,4.53
2022-07-30T06:32:06.503Z,4.10
2022-07-30T06:34:33.513Z,5.88
2022-07-30T06:37:00.861Z,4.82
2022-07-30T06:39:57.863Z,5.72
2022-07-30T06:42:38.859Z,4.90
2022-07-30T06:45:34.769Z,4.60
2022-07-30T06:48:16.599Z,6.90
2022-07-30T06:50:43.995Z,5.53
2022-07-30T06:53:11.545Z,6.50
2022-07-30T06:56:00.177Z,4.00
2022-07-30T06:58:33.784Z,6.43
2022-07-30T07:01:24.870Z,7.07
2022-07-30T07:03:52.833Z,6.43
2022-07-30T07:06:19.959Z,4.25
2022-07-30T07:08:46.987Z,6.40
2022-07-30T07:11:18.000Z,6.50
2022-07-30T07:13:49.463Z,3.25
2022-07-30T07:16:27.319Z,5.32
2022-07-30T07:18:55.874Z,5.22
2022-07-30T07:21:23.463Z,3.20
2022-07-30T07:23:52.511Z,5.82
2022-07-30T07:26:37.941Z,4.25
2022-07-30T07:29:05.435Z,6.35
2022-07-30T07:32:06.962Z,5.45
2022-07-30T07:34:21.031Z,6.82
2022-07-30T07:36:48.786Z,4.03
2022-07-30T07:39:15.962Z,4.35
2022-07-30T07:41:48.213Z,9.63
2022-07-30T07:44:17.353Z,4.82
2022-07-30T07:46:44.402Z,4.65
2022-07-30T07:49:11.478Z,4.63
2022-07-30T07:51:47.495Z,3.60
2022-07-30T07:54:23.300Z,4.07
2022-07-30T07:56:53.254Z,5.35
2022-07-30T07:59:28.371Z,6.53
2022-07-30T08:02:04.131Z,4.40
2022-07-30T08:04:49.904Z,4.07
2022-07-30T08:07:34.859Z,8.43
2022-07-30T08:10:27.811Z,5.50
2022-07-30T08:13:49.256Z,5.22
2022-07-30T08:16:32.050Z,4.55
2022-07-30T08:19:20.824Z,6.10
2022-07-30T08:21:56.156Z,3.38
2022-07-30T08:24:23.168Z,6.80
2022-07-30T08:26:50.197Z,4.68
2022-07-30T08:29:17.499Z,5.72
2022-07-30T08:31:45.438Z,4.95
2022-07-30T08:34:13.440Z,8.20
2022-07-30T08:36:40.895Z,5.35
2022-07-30T08:39:08.702Z,5.63
2022-07-30T08:41:38.658Z,5.93
2022-07-30T08:44:12.658Z,9.60
2022-07-30T08:46:49.424Z,8.88
2022-07-30T08:49:32.616Z,3.97
2022-07-30T08:52:00.136Z,4.95
2022-07-30T08:54:40.728Z,4.30
2022-07-30T08:57:07.861Z,5.50
2022-07-30T08:59:59.907Z,4.53
2022-07-30T09:02:29.937Z,9.95
2022-07-30T09:05:03.507Z,7.70
2022-07-30T09:07:33.611Z,4.55
2022-07-30T09:10:02.001Z,3.80
2022-07-30T09:12:42.819Z,2.78
2022-07-30T09:15:20.295Z,5.68
2022-07-30T09:18:02.746Z,5.60
2022-07-30T09:20:36.621Z,5.43
2022-07-30T09:23:07.796Z,4.82
2022-07-30T09:26:04.203Z,4.40
2022-07-30T09:28:46.514Z,4.88
2022-07-30T09:31:13.764Z,4.25
2022-07-30T09:33:59.190Z,2.30
2022-07-30T09:37:08.591Z,6.57
2022-07-30T09:40:10.510Z,2.58
2022-07-30T09:43:08.901Z,1.83
2022-07-30T09:45:57.159Z,5.15
2022-07-30T09:48:27.696Z,3.47
2022-07-30T09:50:57.553Z,2.42
2022-07-30T09:55:52.624Z,6.40
2022-07-30T09:58:27.222Z,3.88
2022-07-30T10:00:59.341Z,4.90
2022-07-30T10:03:46.513Z,2.72
2022-07-30T10:06:35.292Z,6.95
2022-07-30T10:09:13.631Z,2.05
2022-07-30T10:11:41.599Z,2.40
2022-07-30T10:14:09.722Z,2.42
2022-07-30T10:16:36.952Z,4.97
2022-07-30T10:19:07.112Z,2.85
2022-07-30T10:22:00.480Z,3.60
2022-07-30T10:24:51.903Z,2.22
2022-07-30T10:27:20.363Z,3.00
2022-07-30T10:29:59.516Z,3.45
2022-07-30T10:32:32.214Z,4.05
2022-07-30T10:35:00.892Z,3.70
2022-07-30T10:37:31.809Z,2.95
2022-07-30T10:40:07.414Z,2.88
2022-07-30T10:43:03.102Z,4.68
2022-07-30T10:45:37.108Z,6.95
2022-07-30T10:50:59.829Z,4.28
2022-07-30T10:53:46.636Z,2.70
2022-07-30T10:56:25.536Z,4.95
2022-07-30T10:59:10.686Z,3.65
2022-07-30T11:02:00.938Z,5.15
2022-07-30T11:04:30.544Z,2.75
2022-07-30T11:07:23.911Z,6.85
2022-07-30T11:10:09.193Z,4.22
2022-07-30T11:12:44.111Z,2.13
2022-07-30T11:15:19.135Z,1.98
2022-07-30T11:18:12.025Z,1.92
2022-07-30T11:20:40.802Z,4.13
2022-07-30T11:23:20.046Z,1.60
2022-07-30T11:25:51.102Z,4.22
2022-07-30T11:28:42.001Z,4.28
2022-07-30T11:31:56.656Z,2.38
2022-07-30T11:34:25.930Z,3.78
2022-07-30T11:37:18.390Z,4.53
2022-07-30T11:39:58.163Z,2.28
2022-07-30T11:42:34.459Z,2.90
2022-07-30T11:45:16.629Z,5.28
2022-07-30T11:47:45.436Z,3.90
2022-07-30T11:50:28.963Z,2.15
2022-07-30T11:53:03.542Z,3.05
2022-07-30T11:55:35.095Z,3.60
2022-07-30T11:58:06.642Z,2.45
2022-07-30T12:00:40.319Z,2.97
2022-07-30T12:03:12.761Z,2.63
2022-07-30T12:05:40.692Z,3.42
2022-07-30T12:08:08.539Z,4.32
2022-07-30T12:11:00.770Z,3.17
2022-07-30T12:13:45.477Z,2.17
2022-07-30T12:16:17.498Z,3.67
2022-07-30T12:18:48.850Z,7.03
2022-07-30T12:21:16.872Z,1.23
2022-07-30T12:23:55.211Z,2.30
2022-07-30T12:26:32.057Z,5.85
2022-07-30T12:29:04.788Z,5.95
2022-07-30T12:31:33.576Z,2.17
2022-07-30T12:34:00.844Z,2.05
2022-07-30T12:36:33.020Z,2.50
2022-07-30T12:39:04.912Z,3.38
2022-07-30T12:41:49.389Z,5.93
2022-07-30T12:44:42.109Z,4.53
2022-07-30T12:47:23.886Z,7.00
2022-07-30T12:49:56.073Z,2.20
2022-07-30T12:52:34.805Z,1.42
2022-07-30T12:55:12.645Z,3.28
2022-07-30T12:58:00.756Z,3.88
2022-07-30T13:00:54.771Z,4.20
2022-07-30T13:03:28.205Z,1.70
2022-07-30T13:05:56.795Z,1.42
2022-07-30T13:08:53.655Z,1.35
2022-07-30T13:11:24.827Z,2.28
2022-07-30T13:13:52.450Z,4.00
2022-07-30T13:16:20.758Z,2.30
2022-07-30T13:18:48.214Z,2.80
2022-07-30T13:21:16.090Z,2.00
2022-07-30T13:23:43.134Z,1.25
2022-07-30T13:26:10.911Z,5.13
2022-07-30T13:28:38.196Z,2.22
2022-07-30T13:31:05.546Z,2.78
2022-07-30T13:33:32.711Z,1.33
2022-07-30T13:35:59.659Z,2.15
2022-07-30T13:38:27.525Z,2.05
2022-07-30T13:40:59.067Z,1.30
2022-07-30T13:43:29.045Z,2.70
2022-07-30T13:45:59.988Z,1.42
2022-07-30T13:48:27.819Z,1.00
2022-07-30T13:50:54.978Z,1.25
2022-07-30T13:53:22.058Z,1.40
2022-07-30T13:55:49.185Z,0.82
2022-07-30T13:58:16.148Z,1.20
2022-07-30T14:00:45.101Z,0.82
2022-07-30T14:03:12.635Z,3.53
2022-07-30T14:05:42.264Z,3.33
2022-07-30T14:08:11.752Z,1.60
2022-07-30T14:10:40.232Z,3.20
2022-07-30T14:13:10.253Z,1.10
2022-07-30T14:15:41.355Z,3.03
2022-07-30T14:18:08.369Z,2.33
2022-07-30T14:20:35.352Z,1.65
2022-07-30T14:23:02.650Z,2.90
2022-07-30T14:25:29.736Z,2.03
2022-07-30T14:27:56.723Z,1.20
2022-07-30T14:30:24.638Z,1.98
2022-07-30T14:32:58.301Z,1.63
2022-07-30T14:35:27.472Z,2.03
2022-07-30T14:37:54.491Z,1.17
2022-07-30T14:40:21.726Z,3.30
2022-07-30T14:42:48.746Z,2.47
2022-07-30T14:45:16.020Z,2.78
2022-07-30T14:47:43.097Z,2.55
2022-07-30T14:50:10.172Z,1.92
2022-07-30T14:52:38.722Z,1.58
2022-07-30T14:55:09.416Z,1.42
2022-07-30T14:57:36.625Z,2.55
2022-07-30T15:00:07.542Z,3.60
2022-07-30T15:02:35.232Z,3.47
2022-07-30T15:05:30.302Z,1.40
2022-07-30T15:08:00.229Z,1.98
2022-07-30T15:10:27.351Z,5.15
2022-07-30T15:12:55.010Z,1.73
2022-07-30T15:15:22.525Z,4.20
2022-07-30T15:17:51.028Z,1.63
2022-07-30T15:20:18.993Z,1.25
2022-07-30T15:22:46.143Z,0.90
2022-07-30T15:25:13.187Z,1.10
2022-07-30T15:27:40.191Z,1.02
2022-07-30T15:30:08.022Z,2.03
2022-07-30T15:32:35.253Z,2.33
2022-07-30T15:35:02.238Z,0.75
2022-07-30T15:37:29.259Z,2.10
2022-07-30T15:39:56.262Z,1.30
2022-07-30T15:42:23.664Z,3.72
2022-07-30T15:45:14.257Z,0.80
2022-07-30T15:47:37.776Z,0.95
2022-07-30T15:50:05.833Z,1.23
2022-07-30T15:52:32.928Z,0.85
2022-07-30T15:55:00.112Z,2.05
2022-07-30T15:57:27.159Z,1.50
2022-07-30T15:59:54.140Z,0.75
2022-07-30T16:02:21.186Z,1.50
2022-07-30T16:04:48.400Z,1.85
2022-07-30T16:07:15.458Z,1.50
2022-07-30T16:09:42.649Z,1.48
2022-07-30T16:12:09.613Z,0.75
2022-07-30T16:14:36.779Z,1.10
2022-07-30T16:17:03.748Z,1.20
2022-07-30T16:19:30.723Z,0.68
2022-07-30T16:21:57.848Z,0.80
2022-07-30T16:24:24.858Z,1.23
2022-07-30T16:26:51.808Z,1.48
2022-07-30T16:29:18.866Z,0.77
2022-07-30T16:31:46.834Z,0.90
2022-07-30T16:34:13.949Z,1.33
2022-07-30T16:36:40.924Z,1.98
2022-07-30T16:39:09.225Z,0.70
2022-07-30T16:41:36.878Z,1.05
2022-07-30T16:44:04.866Z,2.28
2022-07-30T16:46:31.912Z,3.03
2022-07-30T16:48:58.933Z,0.80
2022-07-30T16:51:26.011Z,1.23
2022-07-30T16:53:52.993Z,1.85
2022-07-30T16:56:20.235Z,1.65
2022-07-30T16:58:47.228Z,2.28
2022-07-30T17:01:14.484Z,1.85
2022-07-30T17:03:41.913Z,1.13
2022-07-30T17:06:09.129Z,0.70
2022-07-30T17:08:36.289Z,2.55
2022-07-30T17:11:03.910Z,1.88
2022-07-30T17:13:37.021Z,2.63
2022-07-30T17:16:04.281Z,2.55
2022-07-30T17:18:31.297Z,1.60
2022-07-30T17:20:58.501Z,1.50
2022-07-30T17:23:25.475Z,1.40
2022-07-30T17:25:52.459Z,2.30
2022-07-30T17:28:19.500Z,1.70
2022-07-30T17:30:51.373Z,2.05
2022-07-30T17:33:18.316Z,2.75
2022-07-30T17:35:45.271Z,2.40
2022-07-30T17:38:12.256Z,1.35
2022-07-30T17:40:39.220Z,2.35
2022-07-30T17:43:07.506Z,1.02
2022-07-30T17:45:36.707Z,1.17
2022-07-30T17:48:05.104Z,1.73
2022-07-30T17:50:33.305Z,1.70
2022-07-30T17:53:03.314Z,1.10
2022-07-30T17:55:31.587Z,1.75
2022-07-30T17:57:58.634Z,0.90
2022-07-30T18:00:31.075Z,0.98
2022-07-30T18:02:58.060Z,0.98
2022-07-30T18:05:25.083Z,1.38
2022-07-30T18:07:52.056Z,1.83
2022-07-30T18:10:19.125Z,1.65
2022-07-30T18:12:48.826Z,1.10
2022-07-30T18:15:20.038Z,1.10
2022-07-30T18:17:47.222Z,2.63
2022-07-30T18:20:14.983Z,0.80
2022-07-30T18:22:42.733Z,1.05
2022-07-30T18:25:18.715Z,1.65
2022-07-30T18:27:47.739Z,1.42
2022-07-30T18:30:15.308Z,4.32
2022-07-30T18:32:42.535Z,1.33
2022-07-30T18:35:14.059Z,3.33
2022-07-30T18:37:42.763Z,0.80
2022-07-30T18:40:12.297Z,1.98
2022-07-30T18:42:39.908Z,1.33
2022-07-30T18:45:08.410Z,3.50
2022-07-30T18:47:35.395Z,2.67
2022-07-30T18:50:02.703Z,1.83
2022-07-30T18:52:29.698Z,1.33
2022-07-30T18:54:56.900Z,1.67
2022-07-30T18:57:23.892Z,5.65
2022-07-30T18:59:50.989Z,0.88
2022-07-30T19:02:17.944Z,1.13
2022-07-30T19:04:45.160Z,1.10
2022-07-30T19:07:12.171Z,1.25
2022-07-30T19:09:39.238Z,1.25
2022-07-30T19:12:06.809Z,2.08
2022-07-30T19:14:34.513Z,0.68
2022-07-30T19:17:01.567Z,1.38
2022-07-30T19:19:29.952Z,0.95
2022-07-30T19:21:57.333Z,4.30
2022-07-30T19:24:27.628Z,1.98
2022-07-30T19:26:56.163Z,1.30
2022-07-30T19:29:23.300Z,1.88
2022-07-30T19:31:50.336Z,1.90
2022-07-30T19:34:17.343Z,2.58
2022-07-30T19:36:44.328Z,1.13
2022-07-30T19:39:16.133Z,1.33
2022-07-30T19:42:02.032Z,0.82
2022-07-30T19:44:29.544Z,1.90
2022-07-30T19:46:58.382Z,0.75
2022-07-30T19:49:29.584Z,2.13
2022-07-30T19:52:09.808Z,3.90
2022-07-30T19:54:44.544Z,1.52
2022-07-30T19:57:11.518Z,1.17
2022-07-30T19:59:46.461Z,1.23
2022-07-30T20:02:25.974Z,1.13
2022-07-30T20:04:54.758Z,2.28
2022-07-30T20:07:22.030Z,1.02
2022-07-30T20:09:54.736Z,2.13
2022-07-30T20:12:21.812Z,0.95
2022-07-30T20:14:51.627Z,1.58
2022-07-30T20:17:18.640Z,1.25
2022-07-30T20:19:47.764Z,0.93
2022-07-30T20:22:16.511Z,1.13
2022-07-30T20:24:45.312Z,2.88
2022-07-30T20:27:36.121Z,0.80
2022-07-30T20:29:59.391Z,2.15
2022-07-30T20:32:26.818Z,2.85
2022-07-30T20:34:53.873Z,1.00
2022-07-30T20:37:22.572Z,1.50
2022-07-30T20:39:50.120Z,1.05
2022-07-30T20:42:17.302Z,1.27
2022-07-30T20:44:49.340Z,1.55
2022-07-30T20:47:34.479Z,1.15
2022-07-30T20:50:11.213Z,0.80
2022-07-30T20:52:46.420Z,0.95
2022-07-30T20:55:16.539Z,0.80
2022-07-30T20:57:58.031Z,0.90
2022-07-30T21:00:33.274Z,1.88
2022-07-30T21:03:03.313Z,0.82
2022-07-30T21:07:58.555Z,2.92
2022-07-30T21:10:25.612Z,1.67
2022-07-30T21:12:56.434Z,1.30
2022-07-30T21:15:36.064Z,0.85
2022-07-30T21:18:03.848Z,1.48
2022-07-30T21:20:32.190Z,0.80
2022-07-30T21:23:10.038Z,1.13
2022-07-30T21:26:01.330Z,2.28
2022-07-30T21:33:42.293Z,1.50
2022-07-30T21:36:10.530Z,0.70
2022-07-30T21:38:42.347Z,1.08
2022-07-30T21:41:13.849Z,1.02
2022-07-30T21:43:43.865Z,1.52
2022-07-30T21:46:11.560Z,1.33
2022-07-30T21:48:39.678Z,0.90
2022-07-30T21:51:08.515Z,1.38
2022-07-30T21:53:45.020Z,1.85
2022-07-30T21:56:13.611Z,1.75
2022-07-30T21:58:41.556Z,1.27
2022-07-30T22:01:16.417Z,1.17
2022-07-30T22:04:03.922Z,1.15
2022-07-30T22:06:40.199Z,1.58
2022-07-30T22:09:18.691Z,1.08
2022-07-30T22:11:54.448Z,1.92
2022-07-30T22:14:21.393Z,1.30
2022-07-30T22:16:48.349Z,2.17
2022-07-30T22:19:15.772Z,1.20
2022-07-30T22:21:46.293Z,2.10
2022-07-30T22:24:29.187Z,1.83
2022-07-30T22:27:12.284Z,1.05
2022-07-30T22:29:42.982Z,1.33
2022-07-30T22:32:12.266Z,1.30
2022-07-30T22:34:39.369Z,1.20
2022-07-30T22:37:09.230Z,1.98
2022-07-30T22:39:50.574Z,1.63
2022-07-30T22:42:19.505Z,2.75
2022-07-30T22:44:47.508Z,3.53
2022-07-30T22:47:21.118Z,1.20
2022-07-30T22:49:55.220Z,2.05
2022-07-30T22:52:25.536Z,1.85
2022-07-30T22:54:55.442Z,1.58
2022-07-30T22:57:22.869Z,1.55
2022-07-30T22:59:58.385Z,1.38
2022-07-30T23:02:27.850Z,1.80
2022-07-30T23:04:56.332Z,1.77
2022-07-30T23:07:23.638Z,1.83
2022-07-30T23:10:12.302Z,1.20
2022-07-30T23:12:27.316Z,1.52
2022-07-30T23:12:48.485Z,0.82
2022-07-30T23:17:43.506Z,2.10
2022-07-30T23:20:15.064Z,1.00
2022-07-30T23:22:42.048Z,1.25
2022-07-30T23:25:10.925Z,1.45
2022-07-30T23:27:39.271Z,1.42
2022-07-30T23:30:09.894Z,2.22
2022-07-30T23:32:37.961Z,2.28
2022-07-30T23:35:07.234Z,1.70
2022-07-30T23:37:53.156Z,1.33
2022-07-30T23:40:20.135Z,2.30
2022-07-30T23:42:49.978Z,1.23
2022-07-30T23:45:18.136Z,3.08
2022-07-30T23:48:01.434Z,3.38
2022-07-30T23:50:34.388Z,1.33
2022-07-30T23:53:02.908Z,1.42
2022-07-30T23:55:31.929Z,2.45
2022-07-30T23:58:00.089Z,2.03
